sensor_id;sensor_type;location;lat;lon;timestamp;pressure;altitude;pressure_sealevel;temperature;humidity
5879;BME280;2965;42.640;23.370;2023-07-16T04:01:56;94788.50;;;22.55;nan
5879;BME280;2965;42.640;23.370;2023-07-16T04:04:21;94790.13;;;22.56;nan
5879;BME280;2965;42.640;23.370;2023-07-16T04:06:47;94788.56;;;22.60;nan
5879;BME280;2965;42.640;23.370;2023-07-16T04:09:12;94793.41;;;22.63;nan
5879;BME280;2965;42.640;23.370;2023-07-16T04:11:38;94796.06;;;22.63;nan
5879;BME280;2965;42.640;23.370;2023-07-16T04:14:03;94791.22;;;22.60;nan
5879;BME280;2965;42.640;23.370;2023-07-16T04:16:28;94788.59;;;22.65;nan
5879;BME280;2965;42.640;23.370;2023-07-16T04:18:54;94791.13;;;22.77;nan
5879;BME280;2965;42.640;23.370;2023-07-16T04:21:19;94794.03;;;22.75;nan
5879;BME280;2965;42.640;23.370;2023-07-16T04:23:44;94798.56;;;22.75;nan
5879;BME280;2965;42.640;23.370;2023-07-16T04:26:10;94796.47;;;22.77;nan
5879;BME280;2965;42.640;23.370;2023-07-16T04:28:35;94804.19;;;22.78;nan
5879;BME280;2965;42.640;23.370;2023-07-16T04:31:01;94801.03;;;22.81;nan
5879;BME280;2965;42.640;23.370;2023-07-16T04:33:26;94802.63;;;22.82;nan
5879;BME280;2965;42.640;23.370;2023-07-16T04:35:51;94809.03;;;22.81;nan
5879;BME280;2965;42.640;23.370;2023-07-16T04:38:17;94799.59;;;22.96;nan
5879;BME280;2965;42.640;23.370;2023-07-16T04:40:42;94810.34;;;23.06;nan
5879;BME280;2965;42.640;23.370;2023-07-16T04:43:08;94808.22;;;23.08;nan
5879;BME280;2965;42.640;23.370;2023-07-16T04:45:34;94809.84;;;23.09;nan
5879;BME280;2965;42.640;23.370;2023-07-16T04:47:59;94807.16;;;23.09;nan
5879;BME280;2965;42.640;23.370;2023-07-16T04:50:24;94808.72;;;23.05;nan
5879;BME280;2965;42.640;23.370;2023-07-16T04:52:50;94813.06;;;23.11;nan
5879;BME280;2965;42.640;23.370;2023-07-16T04:55:15;94810.97;;;23.18;nan
5879;BME280;2965;42.640;23.370;2023-07-16T04:57:40;94812.72;;;23.34;nan
5879;BME280;2965;42.640;23.370;2023-07-16T05:00:06;94815.41;;;23.39;nan
5879;BME280;2965;42.640;23.370;2023-07-16T05:02:33;94825.34;;;23.49;nan
5879;BME280;2965;42.640;23.370;2023-07-16T05:04:58;94821.63;;;23.50;nan
5879;BME280;2965;42.640;23.370;2023-07-16T05:07:23;94820.91;;;23.60;nan
5879;BME280;2965;42.640;23.370;2023-07-16T05:09:49;94816.63;;;23.64;nan
5879;BME280;2965;42.640;23.370;2023-07-16T05:12:14;94823.38;;;23.66;nan
5879;BME280;2965;42.640;23.370;2023-07-16T05:14:44;94823.09;;;23.68;nan
5879;BME280;2965;42.640;23.370;2023-07-16T05:17:11;94816.16;;;23.67;nan
5879;BME280;2965;42.640;23.370;2023-07-16T05:19:36;94812.44;;;23.68;nan
5879;BME280;2965;42.640;23.370;2023-07-16T05:22:02;94820.53;;;23.78;nan
5879;BME280;2965;42.640;23.370;2023-07-16T05:24:27;94815.19;;;23.78;nan
5879;BME280;2965;42.640;23.370;2023-07-16T05:26:53;94816.50;;;23.81;nan
5879;BME280;2965;42.640;23.370;2023-07-16T05:29:19;94816.59;;;23.91;nan
5879;BME280;2965;42.640;23.370;2023-07-16T05:31:45;94824.91;;;24.00;nan
5879;BME280;2965;42.640;23.370;2023-07-16T05:34:11;94823.28;;;23.99;nan
5879;BME280;2965;42.640;23.370;2023-07-16T05:36:37;94821.50;;;24.14;nan
5879;BME280;2965;42.640;23.370;2023-07-16T05:39:02;94833.56;;;24.22;nan
5879;BME280;2965;42.640;23.370;2023-07-16T05:41:28;94828.47;;;24.21;nan
5879;BME280;2965;42.640;23.370;2023-07-16T05:43:53;94834.41;;;24.33;nan
5879;BME280;2965;42.640;23.370;2023-07-16T05:46:18;94826.72;;;24.41;nan
5879;BME280;2965;42.640;23.370;2023-07-16T05:48:44;94830.47;;;24.40;nan
5879;BME280;2965;42.640;23.370;2023-07-16T05:51:09;94839.00;;;24.42;nan
5879;BME280;2965;42.640;23.370;2023-07-16T05:53:34;94840.63;;;24.44;nan
5879;BME280;2965;42.640;23.370;2023-07-16T05:56:00;94835.84;;;24.51;nan
5879;BME280;2965;42.640;23.370;2023-07-16T05:58:25;94848.72;;;24.59;nan
5879;BME280;2965;42.640;23.370;2023-07-16T06:00:51;94843.38;;;24.69;nan
5879;BME280;2965;42.640;23.370;2023-07-16T06:03:16;94842.56;;;24.69;nan
5879;BME280;2965;42.640;23.370;2023-07-16T06:05:44;94839.69;;;24.80;nan
5879;BME280;2965;42.640;23.370;2023-07-16T06:08:09;94851.47;;;24.95;nan
5879;BME280;2965;42.640;23.370;2023-07-16T06:10:35;94847.72;;;24.96;nan
5879;BME280;2965;42.640;23.370;2023-07-16T06:13:00;94844.53;;;25.04;nan
5879;BME280;2965;42.640;23.370;2023-07-16T06:15:26;94849.34;;;25.07;nan
5879;BME280;2965;42.640;23.370;2023-07-16T06:17:51;94852.34;;;25.15;nan
5879;BME280;2965;42.640;23.370;2023-07-16T06:20:17;94841.63;;;25.15;nan
5879;BME280;2965;42.640;23.370;2023-07-16T06:22:42;94851.47;;;25.05;nan
5879;BME280;2965;42.640;23.370;2023-07-16T06:25:08;94848.88;;;25.15;nan
5879;BME280;2965;42.640;23.370;2023-07-16T06:27:36;94848.31;;;25.08;nan
5879;BME280;2965;42.640;23.370;2023-07-16T06:30:01;94848.03;;;25.14;nan
5879;BME280;2965;42.640;23.370;2023-07-16T06:32:27;94843.50;;;25.20;nan
5879;BME280;2965;42.640;23.370;2023-07-16T06:34:52;94845.09;;;25.31;nan
5879;BME280;2965;42.640;23.370;2023-07-16T06:37:17;94843.78;;;25.44;nan
5879;BME280;2965;42.640;23.370;2023-07-16T06:39:43;94841.63;;;25.56;nan
5879;BME280;2965;42.640;23.370;2023-07-16T06:42:08;94842.44;;;25.62;nan
5879;BME280;2965;42.640;23.370;2023-07-16T06:44:34;94837.63;;;25.64;nan
5879;BME280;2965;42.640;23.370;2023-07-16T06:46:59;94836.53;;;25.75;nan
5879;BME280;2965;42.640;23.370;2023-07-16T06:49:24;94839.47;;;25.89;nan
5879;BME280;2965;42.640;23.370;2023-07-16T06:51:50;94836.53;;;25.80;nan
5879;BME280;2965;42.640;23.370;2023-07-16T06:54:15;94839.75;;;25.72;nan
5879;BME280;2965;42.640;23.370;2023-07-16T06:56:41;94837.59;;;25.74;nan
5879;BME280;2965;42.640;23.370;2023-07-16T06:59:06;94831.19;;;25.90;nan
5879;BME280;2965;42.640;23.370;2023-07-16T07:01:31;94834.91;;;26.00;nan
5879;BME280;2965;42.640;23.370;2023-07-16T07:03:57;94841.31;;;26.09;nan
5879;BME280;2965;42.640;23.370;2023-07-16T07:06:22;94839.69;;;26.13;nan
5879;BME280;2965;42.640;23.370;2023-07-16T07:08:49;94843.91;;;26.29;nan
5879;BME280;2965;42.640;23.370;2023-07-16T07:11:14;94832.16;;;26.15;nan
5879;BME280;2965;42.640;23.370;2023-07-16T07:13:39;94828.97;;;26.13;nan
5879;BME280;2965;42.640;23.370;2023-07-16T07:16:05;94834.28;;;26.28;nan
5879;BME280;2965;42.640;23.370;2023-07-16T07:18:30;94832.09;;;26.46;nan
5879;BME280;2965;42.640;23.370;2023-07-16T07:20:56;94837.16;;;26.47;nan
5879;BME280;2965;42.640;23.370;2023-07-16T07:23:21;94840.69;;;26.48;nan
5879;BME280;2965;42.640;23.370;2023-07-16T07:25:50;94829.84;;;26.68;nan
5879;BME280;2965;42.640;23.370;2023-07-16T07:28:16;94826.53;;;26.81;nan
5879;BME280;2965;42.640;23.370;2023-07-16T07:30:41;94824.84;;;26.96;nan
5879;BME280;2965;42.640;23.370;2023-07-16T07:33:07;94826.94;;;27.04;nan
5879;BME280;2965;42.640;23.370;2023-07-16T07:35:32;94834.47;;;27.02;nan
5879;BME280;2965;42.640;23.370;2023-07-16T07:37:57;94836.31;;;27.11;nan
5879;BME280;2965;42.640;23.370;2023-07-16T07:40:23;94836.69;;;26.89;nan
5879;BME280;2965;42.640;23.370;2023-07-16T07:42:48;94837.75;;;26.94;nan
5879;BME280;2965;42.640;23.370;2023-07-16T07:45:14;94827.00;;;26.94;nan
5879;BME280;2965;42.640;23.370;2023-07-16T07:47:41;94835.38;;;26.82;nan
5879;BME280;2965;42.640;23.370;2023-07-16T07:50:06;94825.38;;;26.98;nan
5879;BME280;2965;42.640;23.370;2023-07-16T07:52:32;94829.91;;;27.02;nan
5879;BME280;2965;42.640;23.370;2023-07-16T07:54:57;94826.47;;;26.97;nan
5879;BME280;2965;42.640;23.370;2023-07-16T07:57:22;94830.78;;;26.92;nan
5879;BME280;2965;42.640;23.370;2023-07-16T07:59:48;94831.81;;;26.97;nan
5879;BME280;2965;42.640;23.370;2023-07-16T08:02:13;94824.19;;;27.19;nan
5879;BME280;2965;42.640;23.370;2023-07-16T08:04:38;94826.75;;;27.34;nan
5879;BME280;2965;42.640;23.370;2023-07-16T08:07:04;94825.06;;;27.44;nan
5879;BME280;2965;42.640;23.370;2023-07-16T08:09:29;94833.13;;;27.44;nan
5879;BME280;2965;42.640;23.370;2023-07-16T08:11:55;94829.78;;;27.57;nan
5879;BME280;2965;42.640;23.370;2023-07-16T08:14:20;94825.63;;;27.75;nan
5879;BME280;2965;42.640;23.370;2023-07-16T08:16:46;94833.31;;;27.86;nan
5879;BME280;2965;42.640;23.370;2023-07-16T08:19:11;94825.66;;;27.99;nan
5879;BME280;2965;42.640;23.370;2023-07-16T08:21:36;94825.47;;;28.14;nan
5879;BME280;2965;42.640;23.370;2023-07-16T08:24:05;94821.41;;;27.92;nan
5879;BME280;2965;42.640;23.370;2023-07-16T08:26:30;94831.13;;;27.88;nan
5879;BME280;2965;42.640;23.370;2023-07-16T08:28:55;94821.31;;;28.03;nan
5879;BME280;2965;42.640;23.370;2023-07-16T08:31:21;94828.03;;;28.24;nan
5879;BME280;2965;42.640;23.370;2023-07-16T08:33:46;94826.81;;;28.40;nan
5879;BME280;2965;42.640;23.370;2023-07-16T08:36:12;94832.75;;;28.61;nan
5879;BME280;2965;42.640;23.370;2023-07-16T08:38:37;94830.16;;;28.75;nan
5879;BME280;2965;42.640;23.370;2023-07-16T08:41:02;94834.97;;;28.78;nan
5879;BME280;2965;42.640;23.370;2023-07-16T08:43:28;94832.19;;;28.83;nan
5879;BME280;2965;42.640;23.370;2023-07-16T08:45:55;94825.88;;;28.93;nan
5879;BME280;2965;42.640;23.370;2023-07-16T08:48:21;94831.25;;;29.12;nan
5879;BME280;2965;42.640;23.370;2023-07-16T08:50:48;94827.41;;;29.18;nan
5879;BME280;2965;42.640;23.370;2023-07-16T08:53:15;94825.59;;;29.32;nan
5879;BME280;2965;42.640;23.370;2023-07-16T08:55:43;94822.88;;;29.32;nan
5879;BME280;2965;42.640;23.370;2023-07-16T08:58:09;94821.19;;;29.55;nan
5879;BME280;2965;42.640;23.370;2023-07-16T09:03:13;94836.69;;;29.63;nan
5879;BME280;2965;42.640;23.370;2023-07-16T09:05:39;94818.22;;;29.38;nan
5879;BME280;2965;42.640;23.370;2023-07-16T09:08:04;94820.19;;;29.32;nan
5879;BME280;2965;42.640;23.370;2023-07-16T09:10:30;94820.81;;;29.62;nan
5879;BME280;2965;42.640;23.370;2023-07-16T09:12:57;94822.56;;;29.85;nan
5879;BME280;2965;42.640;23.370;2023-07-16T09:15:23;94809.78;;;30.05;nan
5879;BME280;2965;42.640;23.370;2023-07-16T09:17:49;94808.03;;;30.14;nan
5879;BME280;2965;42.640;23.370;2023-07-16T09:20:18;94807.84;;;30.24;nan
5879;BME280;2965;42.640;23.370;2023-07-16T09:22:44;94808.22;;;30.45;nan
5879;BME280;2965;42.640;23.370;2023-07-16T09:25:10;94811.53;;;30.56;nan
5879;BME280;2965;42.640;23.370;2023-07-16T09:27:35;94800.03;;;30.64;nan
5879;BME280;2965;42.640;23.370;2023-07-16T09:30:00;94809.19;;;30.77;nan
5879;BME280;2965;42.640;23.370;2023-07-16T09:32:39;94812.41;;;30.65;nan
5879;BME280;2965;42.640;23.370;2023-07-16T09:35:16;94801.81;;;30.82;nan
5879;BME280;2965;42.640;23.370;2023-07-16T09:37:42;94804.16;;;30.98;nan
5879;BME280;2965;42.640;23.370;2023-07-16T09:40:09;94806.31;;;30.73;nan
5879;BME280;2965;42.640;23.370;2023-07-16T09:42:42;94803.19;;;30.66;nan
5879;BME280;2965;42.640;23.370;2023-07-16T09:45:12;94803.19;;;30.80;nan
5879;BME280;2965;42.640;23.370;2023-07-16T09:47:37;94790.72;;;31.06;nan
5879;BME280;2965;42.640;23.370;2023-07-16T09:50:03;94790.91;;;31.10;nan
5879;BME280;2965;42.640;23.370;2023-07-16T09:52:32;94797.22;;;30.83;nan
5879;BME280;2965;42.640;23.370;2023-07-16T09:55:02;94783.81;;;30.78;nan
5879;BME280;2965;42.640;23.370;2023-07-16T09:57:32;94785.25;;;31.20;nan
5879;BME280;2965;42.640;23.370;2023-07-16T10:00:03;94789.97;;;31.51;nan
5879;BME280;2965;42.640;23.370;2023-07-16T10:02:34;94788.47;;;31.67;nan
5879;BME280;2965;42.640;23.370;2023-07-16T10:05:11;94791.53;;;31.52;nan
5879;BME280;2965;42.640;23.370;2023-07-16T10:07:37;94777.38;;;31.77;nan
5879;BME280;2965;42.640;23.370;2023-07-16T10:10:07;94777.72;;;32.07;nan
5879;BME280;2965;42.640;23.370;2023-07-16T10:12:34;94767.72;;;32.16;nan
5879;BME280;2965;42.640;23.370;2023-07-16T10:15:00;94774.09;;;32.20;nan
5879;BME280;2965;42.640;23.370;2023-07-16T10:17:31;94781.53;;;32.46;nan
5879;BME280;2965;42.640;23.370;2023-07-16T10:24:59;94769.81;;;33.02;nan
5879;BME280;2965;42.640;23.370;2023-07-16T10:27:30;94767.59;;;33.13;nan
5879;BME280;2965;42.640;23.370;2023-07-16T10:29:56;94767.59;;;33.30;nan
5879;BME280;2965;42.640;23.370;2023-07-16T10:32:23;94768.84;;;33.07;nan
5879;BME280;2965;42.640;23.370;2023-07-16T10:34:51;94754.00;;;32.78;nan
5879;BME280;2965;42.640;23.370;2023-07-16T10:37:16;94756.75;;;32.96;nan
5879;BME280;2965;42.640;23.370;2023-07-16T10:39:49;94754.50;;;33.06;nan
5879;BME280;2965;42.640;23.370;2023-07-16T10:42:19;94761.69;;;32.94;nan
5879;BME280;2965;42.640;23.370;2023-07-16T10:49:47;94759.06;;;33.75;nan
5879;BME280;2965;42.640;23.370;2023-07-16T10:52:12;94762.34;;;33.89;nan
5879;BME280;2965;42.640;23.370;2023-07-16T10:54:40;94763.94;;;33.90;nan
5879;BME280;2965;42.640;23.370;2023-07-16T10:57:05;94760.28;;;34.33;nan
5879;BME280;2965;42.640;23.370;2023-07-16T10:59:31;94752.03;;;34.80;nan
5879;BME280;2965;42.640;23.370;2023-07-16T11:01:57;94752.69;;;34.77;nan
5879;BME280;2965;42.640;23.370;2023-07-16T11:04:22;94754.34;;;34.91;nan
5879;BME280;2965;42.640;23.370;2023-07-16T11:06:50;94745.41;;;35.11;nan
5879;BME280;2965;42.640;23.370;2023-07-16T11:09:15;94749.72;;;35.12;nan
5879;BME280;2965;42.640;23.370;2023-07-16T11:11:40;94744.06;;;34.96;nan
5879;BME280;2965;42.640;23.370;2023-07-16T11:14:07;94749.09;;;34.85;nan
5879;BME280;2965;42.640;23.370;2023-07-16T11:16:36;94736.22;;;34.53;nan
5879;BME280;2965;42.640;23.370;2023-07-16T11:19:05;94744.19;;;34.58;nan
5879;BME280;2965;42.640;23.370;2023-07-16T11:21:36;94736.69;;;34.25;nan
5879;BME280;2965;42.640;23.370;2023-07-16T11:24:17;94734.34;;;34.45;nan
5879;BME280;2965;42.640;23.370;2023-07-16T11:26:51;94731.88;;;34.81;nan
5879;BME280;2965;42.640;23.370;2023-07-16T11:29:16;94737.94;;;35.08;nan
5879;BME280;2965;42.640;23.370;2023-07-16T11:31:41;94729.66;;;35.37;nan
5879;BME280;2965;42.640;23.370;2023-07-16T11:34:07;94734.63;;;35.81;nan
5879;BME280;2965;42.640;23.370;2023-07-16T11:36:33;94730.28;;;36.13;nan
5879;BME280;2965;42.640;23.370;2023-07-16T11:38:59;94733.72;;;35.77;nan
5879;BME280;2965;42.640;23.370;2023-07-16T11:41:24;94727.78;;;36.32;nan
5879;BME280;2965;42.640;23.370;2023-07-16T11:43:50;94730.72;;;36.40;nan
5879;BME280;2965;42.640;23.370;2023-07-16T11:46:16;94731.44;;;36.49;nan
5879;BME280;2965;42.640;23.370;2023-07-16T11:48:42;94727.50;;;36.74;nan
5879;BME280;2965;42.640;23.370;2023-07-16T11:51:08;94723.44;;;36.68;nan
5879;BME280;2965;42.640;23.370;2023-07-16T11:53:33;94727.97;;;36.64;nan
5879;BME280;2965;42.640;23.370;2023-07-16T11:55:59;94727.50;;;36.74;nan
5879;BME280;2965;42.640;23.370;2023-07-16T12:00:53;94730.19;;;36.86;nan
5879;BME280;2965;42.640;23.370;2023-07-16T12:03:18;94724.44;;;36.76;nan
5879;BME280;2965;42.640;23.370;2023-07-16T12:05:44;94726.13;;;36.80;nan
5879;BME280;2965;42.640;23.370;2023-07-16T12:08:09;94724.56;;;36.79;nan
5879;BME280;2965;42.640;23.370;2023-07-16T12:10:40;94727.38;;;36.95;nan
5879;BME280;2965;42.640;23.370;2023-07-16T12:13:05;94715.78;;;37.26;nan
5879;BME280;2965;42.640;23.370;2023-07-16T12:15:30;94722.13;;;37.30;nan
5879;BME280;2965;42.640;23.370;2023-07-16T12:17:56;94716.81;;;37.50;nan
5879;BME280;2965;42.640;23.370;2023-07-16T12:20:21;94712.34;;;37.42;nan
5879;BME280;2965;42.640;23.370;2023-07-16T12:22:46;94712.69;;;37.56;nan
5879;BME280;2965;42.640;23.370;2023-07-16T12:25:12;94717.16;;;37.20;nan
5879;BME280;2965;42.640;23.370;2023-07-16T12:27:37;94711.22;;;37.30;nan
5879;BME280;2965;42.640;23.370;2023-07-16T12:30:03;94712.75;;;37.44;nan
5879;BME280;2965;42.640;23.370;2023-07-16T12:32:28;94707.94;;;37.84;nan
5879;BME280;2965;42.640;23.370;2023-07-16T12:34:54;94716.09;;;37.97;nan
5879;BME280;2965;42.640;23.370;2023-07-16T12:37:20;94709.09;;;37.52;nan
5879;BME280;2965;42.640;23.370;2023-07-16T12:39:45;94705.28;;;37.41;nan
5879;BME280;2965;42.640;23.370;2023-07-16T12:42:11;94703.91;;;37.78;nan
5879;BME280;2965;42.640;23.370;2023-07-16T12:44:36;94708.59;;;38.09;nan
5879;BME280;2965;42.640;23.370;2023-07-16T12:47:01;94704.06;;;38.49;nan
5879;BME280;2965;42.640;23.370;2023-07-16T12:49:27;94697.75;;;38.64;nan
5879;BME280;2965;42.640;23.370;2023-07-16T12:51:53;94694.81;;;38.53;nan
5879;BME280;2965;42.640;23.370;2023-07-16T12:54:18;94697.84;;;38.68;nan
5879;BME280;2965;42.640;23.370;2023-07-16T12:56:43;94692.56;;;38.94;nan
5879;BME280;2965;42.640;23.370;2023-07-16T12:59:09;94690.97;;;39.13;nan
5879;BME280;2965;42.640;23.370;2023-07-16T13:01:34;94690.75;;;38.82;nan
5879;BME280;2965;42.640;23.370;2023-07-16T13:04:00;94682.13;;;38.29;nan
5879;BME280;2965;42.640;23.370;2023-07-16T13:06:25;94681.34;;;38.45;nan
5879;BME280;2965;42.640;23.370;2023-07-16T13:08:50;94680.53;;;38.99;nan
5879;BME280;2965;42.640;23.370;2023-07-16T13:11:16;94680.69;;;39.25;nan
5879;BME280;2965;42.640;23.370;2023-07-16T13:13:41;94684.06;;;39.80;nan
5879;BME280;2965;42.640;23.370;2023-07-16T13:16:09;94685.44;;;40.17;nan
5879;BME280;2965;42.640;23.370;2023-07-16T13:18:34;94685.50;;;40.20;nan
5879;BME280;2965;42.640;23.370;2023-07-16T13:21:00;94678.47;;;39.73;nan
5879;BME280;2965;42.640;23.370;2023-07-16T13:23:25;94682.53;;;39.83;nan
5879;BME280;2965;42.640;23.370;2023-07-16T13:25:50;94681.59;;;39.75;nan
5879;BME280;2965;42.640;23.370;2023-07-16T13:28:17;94679.13;;;39.24;nan
5879;BME280;2965;42.640;23.370;2023-07-16T13:30:43;94683.31;;;38.64;nan
5879;BME280;2965;42.640;23.370;2023-07-16T13:33:08;94678.25;;;38.81;nan
5879;BME280;2965;42.640;23.370;2023-07-16T13:35:34;94682.63;;;38.31;nan
5879;BME280;2965;42.640;23.370;2023-07-16T13:37:59;94671.72;;;37.68;nan
5879;BME280;2965;42.640;23.370;2023-07-16T13:40:26;94667.56;;;37.74;nan
5879;BME280;2965;42.640;23.370;2023-07-16T13:42:51;94674.44;;;37.68;nan
5879;BME280;2965;42.640;23.370;2023-07-16T13:45:18;94670.34;;;38.41;nan
5879;BME280;2965;42.640;23.370;2023-07-16T13:47:44;94670.53;;;38.87;nan
5879;BME280;2965;42.640;23.370;2023-07-16T13:50:10;94660.53;;;39.33;nan
5879;BME280;2965;42.640;23.370;2023-07-16T13:52:36;94659.84;;;38.98;nan
5879;BME280;2965;42.640;23.370;2023-07-16T13:55:02;94660.66;;;38.63;nan
5879;BME280;2965;42.640;23.370;2023-07-16T13:57:29;94658.50;;;38.72;nan
5879;BME280;2965;42.640;23.370;2023-07-16T13:59:54;94657.91;;;38.44;nan
5879;BME280;2965;42.640;23.370;2023-07-16T14:02:20;94649.13;;;38.34;nan
5879;BME280;2965;42.640;23.370;2023-07-16T14:04:45;94651.06;;;38.18;nan
5879;BME280;2965;42.640;23.370;2023-07-16T14:07:11;94653.22;;;38.09;nan
5879;BME280;2965;42.640;23.370;2023-07-16T14:09:36;94642.53;;;38.20;nan
5879;BME280;2965;42.640;23.370;2023-07-16T14:12:02;94654.59;;;38.34;nan
5879;BME280;2965;42.640;23.370;2023-07-16T14:14:28;94649.06;;;38.50;nan
5879;BME280;2965;42.640;23.370;2023-07-16T14:16:53;94652.59;;;38.51;nan
5879;BME280;2965;42.640;23.370;2023-07-16T14:19:19;94647.88;;;38.48;nan
5879;BME280;2965;42.640;23.370;2023-07-16T14:21:44;94644.91;;;38.21;nan
5879;BME280;2965;42.640;23.370;2023-07-16T14:24:10;94644.56;;;38.39;nan
5879;BME280;2965;42.640;23.370;2023-07-16T14:26:35;94649.31;;;38.61;nan
5879;BME280;2965;42.640;23.370;2023-07-16T14:29:01;94649.03;;;38.85;nan
5879;BME280;2965;42.640;23.370;2023-07-16T14:31:26;94654.34;;;39.17;nan
5879;BME280;2965;42.640;23.370;2023-07-16T14:33:52;94650.19;;;39.23;nan
5879;BME280;2965;42.640;23.370;2023-07-16T14:36:17;94645.94;;;39.49;nan
5879;BME280;2965;42.640;23.370;2023-07-16T14:38:43;94647.66;;;39.57;nan
5879;BME280;2965;42.640;23.370;2023-07-16T14:41:08;94649.63;;;39.79;nan
5879;BME280;2965;42.640;23.370;2023-07-16T14:43:33;94650.88;;;39.20;nan
5879;BME280;2965;42.640;23.370;2023-07-16T14:45:59;94650.25;;;39.69;nan
5879;BME280;2965;42.640;23.370;2023-07-16T14:48:24;94648.75;;;39.75;nan
5879;BME280;2965;42.640;23.370;2023-07-16T14:50:52;94643.06;;;39.19;nan
5879;BME280;2965;42.640;23.370;2023-07-16T14:53:18;94645.69;;;38.92;nan
5879;BME280;2965;42.640;23.370;2023-07-16T14:55:52;94649.69;;;38.98;nan
5879;BME280;2965;42.640;23.370;2023-07-16T14:58:19;94642.16;;;38.92;nan
5879;BME280;2965;42.640;23.370;2023-07-16T15:00:45;94647.28;;;39.35;nan
5879;BME280;2965;42.640;23.370;2023-07-16T15:03:11;94648.09;;;39.36;nan
5879;BME280;2965;42.640;23.370;2023-07-16T15:05:37;94640.66;;;39.17;nan
5879;BME280;2965;42.640;23.370;2023-07-16T15:08:02;94652.47;;;39.41;nan
5879;BME280;2965;42.640;23.370;2023-07-16T15:10:27;94653.66;;;39.85;nan
5879;BME280;2965;42.640;23.370;2023-07-16T15:12:53;94654.41;;;40.09;nan
5879;BME280;2965;42.640;23.370;2023-07-16T15:15:18;94649.16;;;40.00;nan
5879;BME280;2965;42.640;23.370;2023-07-16T15:17:44;94649.34;;;40.11;nan
5879;BME280;2965;42.640;23.370;2023-07-16T15:20:10;94646.31;;;40.16;nan
5879;BME280;2965;42.640;23.370;2023-07-16T15:22:37;94648.50;;;40.07;nan
5879;BME280;2965;42.640;23.370;2023-07-16T15:25:03;94651.38;;;39.91;nan
5879;BME280;2965;42.640;23.370;2023-07-16T15:27:29;94653.50;;;39.78;nan
5879;BME280;2965;42.640;23.370;2023-07-16T15:29:55;94652.56;;;39.67;nan
5879;BME280;2965;42.640;23.370;2023-07-16T15:32:20;94640.78;;;39.44;nan
5879;BME280;2965;42.640;23.370;2023-07-16T15:34:46;94649.69;;;38.98;nan
5879;BME280;2965;42.640;23.370;2023-07-16T15:37:11;94646.84;;;38.36;nan
5879;BME280;2965;42.640;23.370;2023-07-16T15:39:37;94642.41;;;38.48;nan
5879;BME280;2965;42.640;23.370;2023-07-16T15:42:04;94652.03;;;38.61;nan
5879;BME280;2965;42.640;23.370;2023-07-16T15:44:30;94646.63;;;38.29;nan
5879;BME280;2965;42.640;23.370;2023-07-16T15:46:56;94654.38;;;38.08;nan
5879;BME280;2965;42.640;23.370;2023-07-16T15:49:21;94653.91;;;37.74;nan
5879;BME280;2965;42.640;23.370;2023-07-16T15:51:47;94656.00;;;37.33;nan
5879;BME280;2965;42.640;23.370;2023-07-16T15:54:12;94656.53;;;37.39;nan
5879;BME280;2965;42.640;23.370;2023-07-16T15:56:37;94653.31;;;37.21;nan
5879;BME280;2965;42.640;23.370;2023-07-16T15:59:03;94654.81;;;36.62;nan
5879;BME280;2965;42.640;23.370;2023-07-16T16:01:28;94656.22;;;36.20;nan
5879;BME280;2965;42.640;23.370;2023-07-16T16:03:54;94656.78;;;35.76;nan
5879;BME280;2965;42.640;23.370;2023-07-16T16:06:19;94667.44;;;35.69;nan
5879;BME280;2965;42.640;23.370;2023-07-16T16:08:44;94662.22;;;35.76;nan
5879;BME280;2965;42.640;23.370;2023-07-16T16:11:11;94666.66;;;35.69;nan
5879;BME280;2965;42.640;23.370;2023-07-16T16:13:36;94663.03;;;35.31;nan
5879;BME280;2965;42.640;23.370;2023-07-16T16:16:02;94675.97;;;35.34;nan
5879;BME280;2965;42.640;23.370;2023-07-16T16:18:27;94678.50;;;35.52;nan
5879;BME280;2965;42.640;23.370;2023-07-16T16:20:53;94679.44;;;35.56;nan
5879;BME280;2965;42.640;23.370;2023-07-16T16:23:18;94677.19;;;35.37;nan
5879;BME280;2965;42.640;23.370;2023-07-16T16:25:44;94684.88;;;35.56;nan
5879;BME280;2965;42.640;23.370;2023-07-16T16:28:10;94686.09;;;35.58;nan
5879;BME280;2965;42.640;23.370;2023-07-16T16:30:37;94690.22;;;35.31;nan
5879;BME280;2965;42.640;23.370;2023-07-16T16:33:03;94683.41;;;35.25;nan
5879;BME280;2965;42.640;23.370;2023-07-16T16:35:35;94686.78;;;35.22;nan
5879;BME280;2965;42.640;23.370;2023-07-16T16:38:04;94682.88;;;34.99;nan
5879;BME280;2965;42.640;23.370;2023-07-16T16:40:31;94690.78;;;35.25;nan
5879;BME280;2965;42.640;23.370;2023-07-16T16:42:56;94699.31;;;35.02;nan
5879;BME280;2965;42.640;23.370;2023-07-16T16:45:22;94692.88;;;35.19;nan
5879;BME280;2965;42.640;23.370;2023-07-16T16:47:48;94696.38;;;35.07;nan
5879;BME280;2965;42.640;23.370;2023-07-16T16:50:14;94697.66;;;35.22;nan
5879;BME280;2965;42.640;23.370;2023-07-16T16:52:40;94702.97;;;35.19;nan
5879;BME280;2965;42.640;23.370;2023-07-16T16:55:06;94697.34;;;35.36;nan
5879;BME280;2965;42.640;23.370;2023-07-16T16:57:32;94695.41;;;35.24;nan
5879;BME280;2965;42.640;23.370;2023-07-16T16:59:57;94701.97;;;35.23;nan
5879;BME280;2965;42.640;23.370;2023-07-16T17:02:23;94696.75;;;35.18;nan
5879;BME280;2965;42.640;23.370;2023-07-16T17:04:49;94701.72;;;35.16;nan
5879;BME280;2965;42.640;23.370;2023-07-16T17:07:14;94699.41;;;35.06;nan
5879;BME280;2965;42.640;23.370;2023-07-16T17:09:41;94705.53;;;35.03;nan
5879;BME280;2965;42.640;23.370;2023-07-16T17:12:07;94698.16;;;34.82;nan
5879;BME280;2965;42.640;23.370;2023-07-16T17:14:35;94695.84;;;34.72;nan
5879;BME280;2965;42.640;23.370;2023-07-16T17:17:01;94698.78;;;34.67;nan
5879;BME280;2965;42.640;23.370;2023-07-16T17:19:26;94699.41;;;34.64;nan
5879;BME280;2965;42.640;23.370;2023-07-16T17:21:51;94697.28;;;34.49;nan
5879;BME280;2965;42.640;23.370;2023-07-16T17:24:17;94692.88;;;34.35;nan
5879;BME280;2965;42.640;23.370;2023-07-16T17:26:42;94698.19;;;33.94;nan
5879;BME280;2965;42.640;23.370;2023-07-16T17:29:08;94702.69;;;33.89;nan
5879;BME280;2965;42.640;23.370;2023-07-16T17:31:34;94710.28;;;33.67;nan
5879;BME280;2965;42.640;23.370;2023-07-16T17:34:01;94708.59;;;33.45;nan
5879;BME280;2965;42.640;23.370;2023-07-16T17:36:26;94711.63;;;33.26;nan
5879;BME280;2965;42.640;23.370;2023-07-16T17:38:52;94706.53;;;33.15;nan
5879;BME280;2965;42.640;23.370;2023-07-16T17:41:18;94709.91;;;32.86;nan